Time;durP1;ratioP1;P1;durP2;ratioP2;P2;SDS_P1;SDS_P2;PMS_P1;PMS_P2;Temp;Humidity;BMP_temperature;BMP_pressure;BME280_temperature;BME280_humidity;BME280_pressure;Samples;Min_cycle;Max_cycle;Signal;HPM_P1;HPM_P2
2023/12/08 00:01:27;;;;;;;;;5.00;5.00;;;;;21.46;45.65;101392.50;112177;1262;18726;-31
2023/12/08 00:03:55;;;;;;;;;8.00;7.00;;;;;21.46;45.62;101393.48;112184;1262;19356;-31
2023/12/08 00:06:22;;;;;;;;;10.67;10.67;;;;;21.46;45.55;101391.63;112211;1262;18419;-30
2023/12/08 00:08:49;;;;;;;;;10.00;9.00;;;;;21.46;45.58;101385.09;112203;1262;18737;-31
2023/12/08 00:11:16;;;;;;;;;8.00;8.00;;;;;21.45;45.59;101387.26;112103;1247;20846;-31
2023/12/08 00:13:44;;;;;;;;;10.00;8.00;;;;;21.44;45.66;101384.37;112264;1249;20018;-31
2023/12/08 00:16:11;;;;;;;;;11.00;10.00;;;;;21.43;45.43;101383.48;112116;1248;20042;-31
2023/12/08 00:18:39;;;;;;;;;10.50;10.00;;;;;21.45;45.36;101387.42;112275;1247;20765;-31
2023/12/08 00:21:07;;;;;;;;;13.00;11.00;;;;;21.45;45.66;101385.84;112113;1262;18945;-31
2023/12/08 00:23:35;;;;;;;;;10.00;8.00;;;;;21.43;45.31;101380.70;112215;1248;21414;-31
2023/12/08 00:26:02;;;;;;;;;10.00;9.50;;;;;21.43;45.34;101379.55;112157;1248;20804;-31
2023/12/08 00:28:29;;;;;;;;;8.00;7.00;;;;;21.44;45.32;101382.62;112218;1248;21236;-31
2023/12/08 00:30:57;;;;;;;;;13.00;8.00;;;;;21.43;45.16;101381.19;112054;1257;19996;-31
2023/12/08 00:33:24;;;;;;;;;11.00;10.00;;;;;21.43;45.12;101386.09;112136;1248;20773;-31
2023/12/08 00:35:51;;;;;;;;;9.00;7.50;;;;;21.43;45.30;101389.42;111972;1248;20006;-31
2023/12/08 00:38:19;;;;;;;;;11.00;10.50;;;;;21.43;45.07;101393.45;112195;1263;18608;-31
2023/12/08 00:40:47;;;;;;;;;7.00;6.00;;;;;21.44;45.02;101395.80;111990;1264;19378;-31
2023/12/08 00:43:14;;;;;;;;;10.00;8.00;;;;;21.43;45.14;101396.67;112155;1248;21256;-31
2023/12/08 00:45:42;;;;;;;;;10.00;9.00;;;;;21.44;45.11;101394.83;112007;1263;18622;-30
2023/12/08 00:48:10;;;;;;;;;10.00;8.00;;;;;21.43;44.93;101393.02;112136;1263;20762;-30
2023/12/08 00:50:37;;;;;;;;;8.00;8.00;;;;;21.43;45.19;101390.84;111980;1249;19966;-31
2023/12/08 00:53:04;;;;;;;;;8.00;7.00;;;;;21.43;45.19;101395.36;112135;1248;20948;-31
2023/12/08 00:55:32;;;;;;;;;7.33;7.33;;;;;21.42;44.95;101396.73;112005;1248;20858;-31
2023/12/08 00:57:59;;;;;;;;;10.00;8.50;;;;;21.43;44.97;101408.50;112149;1249;19681;-31
2023/12/08 01:00:26;;;;;;;;;10.00;8.00;;;;;21.42;45.05;101411.05;112016;1256;19953;-31
2023/12/08 01:02:54;;;;;;;;;8.00;8.00;;;;;21.43;45.03;101401.95;112179;1250;20733;-31
2023/12/08 01:05:21;;;;;;;;;8.00;8.00;;;;;21.42;45.05;101405.11;112035;1255;19999;-31
2023/12/08 01:07:48;;;;;;;;;10.00;10.00;;;;;21.41;44.80;101411.98;112217;1263;18648;-31
2023/12/08 01:10:16;;;;;;;;;10.00;8.00;;;;;21.42;44.99;101416.89;112090;1263;21180;-31
2023/12/08 01:12:43;;;;;;;;;10.00;8.00;;;;;21.41;45.08;101413.45;112293;1263;19924;-30
2023/12/08 01:15:10;;;;;;;;;9.00;8.00;;;;;21.41;44.86;101413.45;112105;1264;18679;-31
2023/12/08 01:17:38;;;;;;;;;10.00;10.00;;;;;21.41;44.68;101417.26;112079;1248;20351;-31
2023/12/08 01:20:07;;;;;;;;;10.00;10.00;;;;;21.41;44.77;101413.77;112087;1249;19712;-31
2023/12/08 01:22:34;;;;;;;;;10.00;10.00;;;;;21.40;44.92;101409.79;112131;1248;21330;-31
2023/12/08 01:25:02;;;;;;;;;8.33;7.33;;;;;21.41;44.85;101417.36;111965;1248;20753;-31
2023/12/08 01:27:29;;;;;;;;;13.00;11.00;;;;;21.41;45.00;101427.08;112149;1248;20004;-31
2023/12/08 01:29:56;;;;;;;;;10.00;8.00;;;;;21.40;44.67;101435.51;112033;1250;20037;-31
2023/12/08 01:32:24;;;;;;;;;11.00;8.00;;;;;21.41;44.74;101439.72;112152;1256;19393;-31
2023/12/08 01:34:51;;;;;;;;;7.00;7.00;;;;;21.40;44.62;101444.34;112055;1247;20102;-31
2023/12/08 01:37:18;;;;;;;;;7.50;7.50;;;;;21.40;44.83;101435.84;111980;1249;21425;-31
2023/12/08 01:39:46;;;;;;;;;7.33;7.00;;;;;21.40;44.54;101441.45;111874;1263;221178;-31
2023/12/08 01:42:13;;;;;;;;;8.00;7.00;;;;;21.39;44.80;101432.56;112077;1248;19616;-32
2023/12/08 01:44:41;;;;;;;;;10.00;8.00;;;;;21.39;44.77;101432.66;112029;1248;18662;-31
2023/12/08 01:47:08;;;;;;;;;10.50;8.00;;;;;21.39;44.53;101428.80;111981;1263;19566;-31
2023/12/08 01:49:35;;;;;;;;;11.00;8.00;;;;;21.39;44.68;101426.02;112065;1256;19903;-31
2023/12/08 01:52:03;;;;;;;;;10.33;10.00;;;;;21.38;44.63;101419.20;112009;1263;19980;-31
2023/12/08 01:54:30;;;;;;;;;8.00;7.50;;;;;21.38;44.59;101417.66;112086;1248;20758;-31
2023/12/08 01:56:58;;;;;;;;;8.00;7.00;;;;;21.38;44.60;101413.47;112042;1257;19944;-31
2023/12/08 01:59:25;;;;;;;;;8.00;8.00;;;;;21.39;44.45;101413.10;112096;1248;20469;-31
2023/12/08 02:04:55;;;;;;;;;8.00;7.67;;;;;21.38;44.39;101413.31;112090;1263;18314;-31
2023/12/08 02:07:22;;;;;;;;;7.67;7.67;;;;;21.39;44.37;101413.91;112017;1263;20022;-31
2023/12/08 02:09:50;;;;;;;;;8.00;7.00;;;;;21.38;44.45;101417.98;112113;1263;19417;-31
2023/12/08 02:12:17;;;;;;;;;10.00;8.00;;;;;21.38;44.42;101420.06;112040;1248;19623;-31
2023/12/08 02:14:45;;;;;;;;;8.00;8.00;;;;;21.38;44.49;101414.06;112117;1247;21198;-31
2023/12/08 02:17:12;;;;;;;;;8.00;8.00;;;;;21.37;44.45;101404.73;112045;1263;19557;-31
2023/12/08 02:19:39;;;;;;;;;7.00;7.00;;;;;21.37;44.42;101400.81;112127;1263;18221;-31
2023/12/08 02:22:07;;;;;;;;;8.00;7.00;;;;;21.37;44.52;101402.89;112030;1247;18696;-31
2023/12/08 02:24:34;;;;;;;;;10.00;10.00;;;;;21.37;44.38;101398.86;112036;1248;20936;-31
2023/12/08 02:27:02;;;;;;;;;7.00;7.00;;;;;21.37;44.46;101396.95;111977;1247;19262;-31
2023/12/08 02:29:29;;;;;;;;;10.00;8.00;;;;;21.37;44.28;101397.83;111970;1263;19940;-31
2023/12/08 02:31:57;;;;;;;;;9.50;8.50;;;;;21.37;44.40;101407.67;111994;1248;21377;-30
2023/12/08 02:34:24;;;;;;;;;7.00;7.00;;;;;21.37;44.20;101403.65;111976;1250;20088;-31
2023/12/08 02:36:51;;;;;;;;;10.00;10.00;;;;;21.36;44.26;101395.02;111974;1263;18650;-30
2023/12/08 02:39:19;;;;;;;;;10.00;7.00;;;;;21.36;44.33;101387.88;111994;1263;20760;-31
2023/12/08 02:41:46;;;;;;;;;6.00;5.50;;;;;21.38;44.24;101390.47;112001;1263;18782;-31
2023/12/08 02:44:14;;;;;;;;;8.50;8.00;;;;;21.38;44.07;101394.83;112016;1263;18531;-31
2023/12/08 02:46:41;;;;;;;;;7.00;7.00;;;;;21.36;44.27;101391.44;112017;1247;20721;-31
2023/12/08 02:49:08;;;;;;;;;10.00;8.00;;;;;21.35;44.08;101389.79;112015;1263;21055;-31
2023/12/08 02:51:36;;;;;;;;;8.00;8.00;;;;;21.35;44.08;101391.54;112046;1251;20273;-31
2023/12/08 02:54:03;;;;;;;;;8.00;7.00;;;;;21.36;44.29;101393.56;112066;1249;22072;-31
2023/12/08 02:56:31;;;;;;;;;7.00;7.00;;;;;21.36;44.37;101384.94;112070;1248;20039;-31
2023/12/08 02:58:58;;;;;;;;;8.00;7.00;;;;;21.36;44.22;101381.79;112107;1263;18673;-31
2023/12/08 03:01:26;;;;;;;;;10.00;8.00;;;;;21.35;43.98;101380.85;112043;1263;19382;-31
2023/12/08 03:03:53;;;;;;;;;8.00;8.00;;;;;21.35;44.24;101379.16;112072;1248;19982;-31
2023/12/08 03:06:21;;;;;;;;;10.00;10.00;;;;;21.34;44.15;101373.21;112031;1263;19968;-30
2023/12/08 03:08:48;;;;;;;;;8.00;7.50;;;;;21.34;44.16;101368.52;112078;1263;20680;-30
2023/12/08 03:11:16;;;;;;;;;9.50;8.50;;;;;21.34;44.28;101370.60;112046;1263;19992;-31
2023/12/08 03:13:43;;;;;;;;;9.00;7.00;;;;;21.33;43.91;101362.95;112124;1247;21275;-31
2023/12/08 03:16:10;;;;;;;;;9.00;8.00;;;;;21.33;44.19;101361.10;112056;1263;20476;-30
2023/12/08 03:18:38;;;;;;;;;9.00;8.00;;;;;21.32;43.89;101355.32;112136;1247;19573;-30
2023/12/08 03:21:05;;;;;;;;;11.00;8.00;;;;;21.32;44.13;101351.35;112019;1248;18711;-30
2023/12/08 03:23:34;;;;;;;;;8.67;8.00;;;;;21.32;43.88;101354.28;112067;1263;20735;-31
2023/12/08 03:26:01;;;;;;;;;10.00;8.00;;;;;21.32;43.81;101357.02;112009;1263;19058;-31
2023/12/08 03:28:29;;;;;;;;;7.00;7.00;;;;;21.32;44.00;101363.23;112081;1247;20045;-31
2023/12/08 03:30:56;;;;;;;;;10.50;10.00;;;;;21.32;43.84;101369.27;112032;1248;20681;-30
2023/12/08 03:33:23;;;;;;;;;10.00;8.00;;;;;21.32;43.89;101367.20;112099;1263;18373;-30
2023/12/08 03:35:51;;;;;;;;;7.50;7.00;;;;;21.32;43.76;101374.07;112038;1247;20125;-30
2023/12/08 03:38:18;;;;;;;;;8.00;8.00;;;;;21.32;43.88;101376.14;112111;1248;22174;-30
2023/12/08 03:40:46;;;;;;;;;8.50;8.00;;;;;21.32;44.17;101374.83;112032;1257;18194;-30
2023/12/08 03:43:13;;;;;;;;;7.00;7.00;;;;;21.32;43.98;101372.11;112162;1247;21242;-31
2023/12/08 03:45:41;;;;;;;;;7.00;7.00;;;;;21.32;43.90;101366.16;111999;1248;20808;-31
2023/12/08 03:48:08;;;;;;;;;8.50;7.00;;;;;21.32;43.79;101365.62;112158;1263;19554;-31
2023/12/08 03:50:35;;;;;;;;;7.50;7.00;;;;;21.32;43.71;101363.71;111977;1247;20247;-31
2023/12/08 03:53:03;;;;;;;;;8.00;7.00;;;;;21.32;43.92;101362.45;112205;1248;19335;-31
2023/12/08 03:55:30;;;;;;;;;12.00;10.00;;;;;21.31;43.74;101360.27;111991;1247;19598;-31
2023/12/08 03:57:58;;;;;;;;;10.00;7.00;;;;;21.31;43.66;101357.00;112117;1263;19896;-31
2023/12/08 04:00:25;;;;;;;;;9.50;8.00;;;;;21.31;43.72;101350.02;112024;1263;19347;-31
2023/12/08 04:02:52;;;;;;;;;7.00;7.00;;;;;21.31;43.83;101347.90;112101;1247;19997;-31
2023/12/08 04:05:20;;;;;;;;;10.00;7.00;;;;;21.31;43.63;101344.73;112009;1248;18829;-30
2023/12/08 04:07:47;;;;;;;;;8.00;7.00;;;;;21.33;43.59;101341.43;112103;1263;20689;-31
2023/12/08 04:10:15;;;;;;;;;7.50;7.50;;;;;21.31;43.39;101333.62;112054;1263;19894;-31
2023/12/08 04:12:42;;;;;;;;;16.00;11.00;;;;;21.30;43.58;101327.03;112113;1263;19877;-31
2023/12/08 04:15:09;;;;;;;;;10.50;10.00;;;;;21.31;43.57;101329.15;112062;1247;19611;-31
2023/12/08 04:17:37;;;;;;;;;11.00;10.00;;;;;21.29;43.56;101326.34;112043;1248;18954;-31
2023/12/08 04:20:04;;;;;;;;;12.00;10.00;;;;;21.30;43.54;101325.34;112117;1263;17648;-31
2023/12/08 04:22:32;;;;;;;;;8.00;8.00;;;;;21.31;43.52;101324.46;111954;1263;19595;-31
2023/12/08 04:24:59;;;;;;;;;10.50;10.00;;;;;21.28;43.42;101321.99;112069;1248;20047;-31
2023/12/08 04:27:27;;;;;;;;;9.33;8.00;;;;;21.29;43.39;101322.16;112028;1248;21292;-31
2023/12/08 04:29:54;;;;;;;;;10.00;8.00;;;;;21.30;43.50;101323.91;112096;1263;20691;-31
2023/12/08 04:32:22;;;;;;;;;13.00;8.00;;;;;21.28;43.49;101321.59;111928;1248;20756;-31
2023/12/08 04:34:49;;;;;;;;;11.50;10.00;;;;;21.28;43.50;101324.39;112114;1263;18936;-31
2023/12/08 04:37:16;;;;;;;;;12.50;11.00;;;;;21.28;43.54;101321.70;111938;1263;21509;-31
2023/12/08 04:39:44;;;;;;;;;11.00;10.00;;;;;21.28;43.41;101326.13;112131;1248;18740;-31
2023/12/08 04:42:11;;;;;;;;;14.00;10.00;;;;;21.29;43.44;101330.02;111978;1248;20061;-31
2023/12/08 04:44:39;;;;;;;;;12.00;9.00;;;;;21.29;43.47;101330.27;112196;1248;21809;-31
2023/12/08 04:47:06;;;;;;;;;10.50;10.00;;;;;21.27;43.39;101319.90;111996;1263;19935;-31
2023/12/08 04:49:33;;;;;;;;;10.00;10.00;;;;;21.27;43.43;101317.45;112203;1263;19999;-31
2023/12/08 04:52:01;;;;;;;;;11.50;10.50;;;;;21.27;43.30;101316.37;111996;1251;20945;-31
2023/12/08 04:54:28;;;;;;;;;10.33;10.33;;;;;21.28;43.28;101319.80;112237;1263;19932;-31
2023/12/08 04:56:56;;;;;;;;;13.00;10.00;;;;;21.26;43.28;101318.54;112049;1263;21174;-31
2023/12/08 04:59:23;;;;;;;;;19.00;14.00;;;;;21.27;43.29;101322.73;112261;1247;20805;-31
2023/12/08 05:01:51;;;;;;;;;11.50;10.00;;;;;21.27;43.23;101325.08;112054;1248;20016;-31
2023/12/08 05:04:18;;;;;;;;;13.00;10.50;;;;;21.28;43.41;101326.95;112257;1248;20091;-31
2023/12/08 05:06:46;;;;;;;;;13.00;11.00;;;;;21.28;43.31;101330.43;112091;1248;21153;-31
2023/12/08 05:09:13;;;;;;;;;14.50;14.00;;;;;21.27;43.47;101331.17;112315;1248;18559;-31
2023/12/08 05:11:40;;;;;;;;;16.00;13.00;;;;;21.26;43.24;101323.06;112087;1263;19917;-31
2023/12/08 05:14:08;;;;;;;;;13.00;12.00;;;;;21.27;43.35;101328.08;112219;1248;22065;-31
2023/12/08 05:16:35;;;;;;;;;13.00;11.00;;;;;21.27;43.28;101324.48;112075;1263;20283;-31
2023/12/08 05:19:03;;;;;;;;;14.00;13.00;;;;;21.26;43.39;101327.52;112179;1248;20213;-31
2023/12/08 05:21:30;;;;;;;;;13.00;13.00;;;;;21.27;43.38;101324.64;112101;1263;19422;-31
2023/12/08 05:23:58;;;;;;;;;10.67;10.00;;;;;21.27;43.03;101326.45;112081;1263;18545;-31
2023/12/08 05:26:25;;;;;;;;;12.00;10.00;;;;;21.26;43.30;101327.30;112096;1263;21212;-31
2023/12/08 05:28:52;;;;;;;;;17.00;16.00;;;;;21.27;43.17;101323.12;111979;1248;21987;-31
2023/12/08 05:31:20;;;;;;;;;15.33;12.67;;;;;21.26;42.99;101318.98;112127;1263;18595;-31
2023/12/08 05:33:47;;;;;;;;;13.00;12.00;;;;;21.27;43.20;101312.60;111978;1263;20036;-31
2023/12/08 05:36:14;;;;;;;;;15.00;13.67;;;;;21.26;43.21;101313.69;112100;1263;21923;-31
2023/12/08 05:38:42;;;;;;;;;11.33;11.33;;;;;21.27;42.97;101311.23;111975;1250;20013;-31
2023/12/08 05:41:09;;;;;;;;;14.00;14.00;;;;;21.28;43.08;101312.34;112154;1248;20112;-31
2023/12/08 05:43:37;;;;;;;;;14.00;13.00;;;;;21.27;43.23;101324.92;111975;1263;19347;-31
2023/12/08 05:46:04;;;;;;;;;11.00;10.00;;;;;21.26;42.97;101332.38;112161;1248;20451;-31
2023/12/08 05:48:32;;;;;;;;;13.00;13.00;;;;;21.26;43.15;101335.36;111968;1263;20071;-31
2023/12/08 05:50:59;;;;;;;;;13.50;12.00;;;;;21.25;43.11;101335.80;112179;1256;19360;-31
2023/12/08 05:53:27;;;;;;;;;13.00;13.00;;;;;21.26;43.17;101337.33;111986;1263;20047;-31
2023/12/08 05:55:54;;;;;;;;;17.00;14.00;;;;;21.25;43.04;101342.11;112139;1263;20018;-31
2023/12/08 05:58:24;;;;;;;;;13.50;12.50;;;;;21.24;43.08;101348.55;111977;1248;20657;-31
2023/12/08 06:00:51;;;;;;;;;15.50;13.00;;;;;21.25;42.93;101351.00;112009;1263;20118;-31
2023/12/08 06:03:18;;;;;;;;;11.50;11.50;;;;;21.25;43.01;101349.36;112221;1263;18704;-31
2023/12/08 06:05:46;;;;;;;;;11.67;10.33;;;;;21.25;43.09;101346.86;112001;1263;21024;-31
2023/12/08 06:08:14;;;;;;;;;14.00;12.67;;;;;21.25;42.89;101343.05;112190;1263;18756;-30
2023/12/08 06:10:42;;;;;;;;;11.00;11.00;;;;;21.24;43.06;101346.58;111968;1263;20043;-31
2023/12/08 06:13:10;;;;;;;;;15.50;13.00;;;;;21.24;42.81;101344.08;112097;1263;21040;-31
2023/12/08 06:15:37;;;;;;;;;15.50;14.50;;;;;21.24;43.04;101344.23;112002;1248;19994;-31
2023/12/08 06:18:04;;;;;;;;;16.00;14.00;;;;;21.23;42.81;101349.73;112098;1263;20030;-31
2023/12/08 06:20:32;;;;;;;;;14.00;13.00;;;;;21.24;43.03;101352.73;111979;1248;20695;-31
2023/12/08 06:22:59;;;;;;;;;16.00;14.50;;;;;21.27;42.76;101353.32;112126;1263;19932;-30
2023/12/08 06:25:27;;;;;;;;;14.00;13.00;;;;;21.32;42.66;101349.38;111966;1247;20046;-31
2023/12/08 06:27:54;;;;;;;;;15.33;13.67;;;;;21.38;42.50;101347.52;112143;1248;20784;-31
2023/12/08 06:30:22;;;;;;;;;12.00;11.00;;;;;21.33;42.85;101344.10;112004;1248;20380;-31
2023/12/08 06:32:49;;;;;;;;;17.00;14.00;;;;;21.32;43.03;101340.44;112176;1248;20594;-31
2023/12/08 06:35:16;;;;;;;;;14.00;11.00;;;;;21.35;43.20;101339.76;112008;1248;19377;-31
2023/12/08 06:37:45;;;;;;;;;13.00;11.00;;;;;21.36;43.65;101336.00;112179;1248;20704;-31
2023/12/08 06:40:13;;;;;;;;;14.00;13.00;;;;;21.40;43.87;101335.98;111992;1247;20086;-31
2023/12/08 06:42:40;;;;;;;;;17.00;13.00;;;;;21.40;44.05;101333.09;112086;1248;21045;-31
2023/12/08 06:45:08;;;;;;;;;17.00;15.00;;;;;21.34;44.19;101338.55;111999;1256;20207;-31
2023/12/08 06:47:36;;;;;;;;;18.00;17.00;;;;;21.30;43.82;101335.56;112074;1248;20168;-31
2023/12/08 06:50:03;;;;;;;;;17.00;14.00;;;;;21.38;43.58;101338.09;112024;1248;21096;-31
2023/12/08 06:52:30;;;;;;;;;23.00;17.00;;;;;21.35;43.23;101339.05;112069;1248;20042;-31
2023/12/08 06:54:58;;;;;;;;;17.00;16.00;;;;;21.35;43.04;101349.99;112008;1263;20028;-31
2023/12/08 06:57:25;;;;;;;;;13.00;11.00;;;;;21.34;43.60;101353.09;112086;1248;20860;-31
2023/12/08 06:59:53;;;;;;;;;13.00;11.00;;;;;21.34;43.58;101353.87;112015;1255;20141;-31
2023/12/08 07:02:20;;;;;;;;;14.00;13.00;;;;;21.38;43.39;101347.68;112043;1263;20400;-31
2023/12/08 07:04:48;;;;;;;;;14.00;13.00;;;;;21.34;43.41;101348.79;112011;1248;20771;-31
2023/12/08 07:07:16;;;;;;;;;22.00;16.00;;;;;21.32;43.29;101347.52;112061;1248;19982;-30
2023/12/08 07:09:43;;;;;;;;;21.33;17.00;;;;;21.34;43.30;101351.52;112003;1248;20177;-31
2023/12/08 07:12:11;;;;;;;;;14.00;12.00;;;;;21.31;43.12;101357.22;112023;1263;20559;-31
2023/12/08 07:14:38;;;;;;;;;22.50;17.00;;;;;21.33;43.11;101355.65;112049;1263;20263;-31
2023/12/08 07:17:06;;;;;;;;;19.50;15.00;;;;;21.34;43.17;101353.59;112091;1248;18671;-31
2023/12/08 07:19:33;;;;;;;;;19.00;14.00;;;;;21.39;43.25;101349.76;112086;1263;19678;-31
2023/12/08 07:22:00;;;;;;;;;11.50;11.00;;;;;21.40;43.26;101348.20;112080;1248;19948;-31
2023/12/08 07:24:28;;;;;;;;;15.67;13.67;;;;;21.38;43.18;101347.84;112111;1257;18763;-30
2023/12/08 07:26:55;;;;;;;;;18.50;16.00;;;;;21.35;43.38;101349.50;112055;1264;20758;-31
2023/12/08 07:29:23;;;;;;;;;16.00;16.00;;;;;21.38;43.25;101348.98;111979;1264;21011;-30
2023/12/08 07:31:50;;;;;;;;;18.00;15.00;;;;;21.37;43.37;101348.22;112029;1249;20115;-30
2023/12/08 07:34:18;;;;;;;;;13.50;11.00;;;;;21.40;43.36;101348.52;112003;1264;19345;-30
2023/12/08 07:36:45;;;;;;;;;19.00;16.00;;;;;21.36;43.86;101348.75;112019;1264;18664;-30
2023/12/08 07:39:13;;;;;;;;;13.00;11.00;;;;;21.35;43.67;101352.29;111999;1264;21440;-30
2023/12/08 07:41:40;;;;;;;;;19.00;14.00;;;;;21.34;43.60;101362.52;111988;1264;19327;-31
2023/12/08 07:44:08;;;;;;;;;48.33;38.67;;;;;21.35;43.64;101360.20;111909;1257;18985;-31
2023/12/08 07:46:35;;;;;;;;;100.00;69.00;;;;;21.40;44.05;101356.30;111875;1264;18927;-30
2023/12/08 07:49:03;;;;;;;;;130.50;102.00;;;;;21.37;43.95;101345.87;111856;1249;22073;-31
2023/12/08 07:51:32;;;;;;;;;217.67;164.00;;;;;21.39;43.95;101345.78;111879;1251;18978;-31
2023/12/08 07:54:00;;;;;;;;;191.00;142.00;;;;;21.40;44.14;101349.44;111919;1249;21477;-31
2023/12/08 07:56:27;;;;;;;;;191.00;141.00;;;;;21.44;44.04;101351.82;111892;1249;21158;-31
2023/12/08 07:58:55;;;;;;;;;139.00;108.00;;;;;21.37;44.21;101355.25;111934;1249;20371;-31
2023/12/08 08:01:22;;;;;;;;;119.00;87.00;;;;;21.34;44.24;101351.58;111957;1249;20435;-31
2023/12/08 08:03:50;;;;;;;;;120.00;93.00;;;;;21.32;44.31;101342.02;111921;1249;20980;-31
2023/12/08 08:06:17;;;;;;;;;114.00;81.00;;;;;21.31;44.10;101344.58;111968;1264;20275;-31
2023/12/08 08:08:45;;;;;;;;;104.67;75.33;;;;;21.30;44.27;101353.06;111935;1249;20616;-32
2023/12/08 08:11:12;;;;;;;;;107.00;75.00;;;;;21.35;44.16;101355.73;112016;1249;21129;-32
2023/12/08 08:13:39;;;;;;;;;99.50;71.50;;;;;21.38;44.38;101354.17;111982;1264;20137;-31
2023/12/08 08:16:07;;;;;;;;;98.50;70.50;;;;;21.39;43.96;101354.77;111970;1257;20069;-32
2023/12/08 08:18:34;;;;;;;;;90.50;67.00;;;;;21.42;43.88;101354.58;111983;1264;19349;-32
2023/12/08 08:21:02;;;;;;;;;84.00;65.00;;;;;21.39;44.01;101356.70;111931;1250;19977;-32
2023/12/08 08:23:29;;;;;;;;;87.50;65.00;;;;;21.40;43.96;101355.39;111995;1264;18718;-32
2023/12/08 08:25:56;;;;;;;;;83.00;60.00;;;;;21.38;44.41;101362.23;111993;1263;19319;-31
2023/12/08 08:28:26;;;;;;;;;80.50;59.00;;;;;21.40;44.52;101366.61;112118;1263;18578;-31
2023/12/08 08:30:53;;;;;;;;;74.50;52.50;;;;;21.38;44.81;101362.95;112196;1263;18716;-32
2023/12/08 08:33:22;;;;;;;;;68.00;53.50;;;;;21.40;44.60;101363.61;112056;1248;20976;-32
2023/12/08 08:35:49;;;;;;;;;70.00;51.00;;;;;21.42;44.44;101363.03;112055;1263;18932;-32
2023/12/08 08:38:17;;;;;;;;;53.50;44.50;;;;;21.43;44.73;101360.86;112007;1248;20049;-31
2023/12/08 08:40:44;;;;;;;;;65.00;44.50;;;;;21.44;44.75;101353.29;112089;1263;20709;-32
2023/12/08 08:43:12;;;;;;;;;57.00;42.67;;;;;21.42;44.81;101349.14;111991;1263;21279;-32
2023/12/08 08:45:39;;;;;;;;;48.50;39.00;;;;;21.46;45.10;101337.39;112096;1263;18703;-29
2023/12/08 08:48:06;;;;;;;;;34.00;31.00;;;;;21.41;45.08;101329.77;111992;1263;20689;-29
2023/12/08 08:50:34;;;;;;;;;41.00;34.00;;;;;21.48;44.76;101322.64;112114;1263;18622;-29
2023/12/08 08:53:01;;;;;;;;;39.50;30.50;;;;;21.46;44.81;101318.97;112021;1251;20054;-28
2023/12/08 08:55:29;;;;;;;;;33.67;31.00;;;;;21.44;45.02;101320.36;112138;1263;19324;-31
2023/12/08 08:57:57;;;;;;;;;34.00;30.00;;;;;21.40;44.59;101312.38;111966;1248;20270;-30
2023/12/08 09:00:26;;;;;;;;;34.00;29.00;;;;;21.41;44.67;101314.84;112086;1248;20293;-31
2023/12/08 09:02:53;;;;;;;;;43.00;29.00;;;;;21.38;45.15;101314.32;112131;1263;20697;-33
2023/12/08 09:05:21;;;;;;;;;33.00;25.33;;;;;21.36;45.27;101315.13;111955;1248;19914;-31
2023/12/08 09:07:48;;;;;;;;;26.00;22.00;;;;;21.35;45.02;101311.25;112163;1263;20045;-31
2023/12/08 09:10:16;;;;;;;;;36.00;23.00;;;;;21.35;44.92;101301.06;111961;1248;20760;-32
2023/12/08 09:12:43;;;;;;;;;28.33;25.33;;;;;21.37;44.96;101293.66;112156;1263;18952;-32
2023/12/08 09:15:11;;;;;;;;;26.00;22.00;;;;;21.39;44.88;101292.52;111964;1263;20083;-32
2023/12/08 09:17:39;;;;;;;;;32.00;28.00;;;;;21.38;44.53;101293.18;112117;1248;19525;-33
2023/12/08 09:20:08;;;;;;;;;25.00;21.00;;;;;21.36;44.35;101299.44;111969;1247;20229;-29
2023/12/08 09:22:35;;;;;;;;;22.50;20.50;;;;;21.33;44.07;101303.33;112070;1256;18890;-30
2023/12/08 09:25:03;;;;;;;;;20.00;19.00;;;;;21.34;43.93;101305.80;112091;1263;19323;-32
2023/12/08 09:27:30;;;;;;;;;25.00;20.00;;;;;21.36;44.38;101306.29;112085;1248;20047;-32
2023/12/08 09:29:57;;;;;;;;;22.00;19.00;;;;;21.34;44.41;101301.98;112106;1248;20184;-32
2023/12/08 09:32:25;;;;;;;;;21.50;15.50;;;;;21.38;44.33;101308.87;112100;1248;20818;-32
2023/12/08 09:34:52;;;;;;;;;19.00;16.00;;;;;21.36;44.32;101302.05;112028;1263;20892;-32
2023/12/08 09:37:20;;;;;;;;;17.00;16.00;;;;;21.31;44.12;101298.35;112046;1248;20127;-32
2023/12/08 09:39:47;;;;;;;;;19.00;14.00;;;;;21.32;44.08;101288.39;112066;1247;20825;-32
2023/12/08 09:42:14;;;;;;;;;16.00;13.50;;;;;21.29;44.28;101275.45;112121;1263;18775;-32
2023/12/08 09:44:42;;;;;;;;;22.33;17.67;;;;;21.28;44.17;101278.38;112021;1248;18735;-32
2023/12/08 09:47:10;;;;;;;;;20.00;17.00;;;;;21.28;44.25;101277.14;112081;1263;20815;-32
2023/12/08 09:49:37;;;;;;;;;17.00;14.00;;;;;21.30;44.15;101278.30;111961;1248;20020;-32
2023/12/08 09:52:05;;;;;;;;;22.00;20.00;;;;;21.29;44.08;101273.92;112083;1258;20055;-32
2023/12/08 09:54:32;;;;;;;;;22.00;16.00;;;;;21.27;44.12;101273.53;111986;1263;20696;-32
2023/12/08 09:57:00;;;;;;;;;15.00;14.50;;;;;21.26;44.09;101272.05;112132;1248;20459;-32
2023/12/08 09:59:27;;;;;;;;;17.67;14.67;;;;;21.25;44.04;101271.94;111939;1264;21306;-32
2023/12/08 10:01:54;;;;;;;;;13.00;11.50;;;;;21.25;44.07;101274.65;112145;1257;19710;-32
2023/12/08 10:04:23;;;;;;;;;14.00;13.00;;;;;21.24;44.02;101270.02;111947;1257;20171;-32
2023/12/08 10:06:50;;;;;;;;;17.00;14.00;;;;;21.25;44.02;101267.20;112064;1263;18921;-32
2023/12/08 10:09:18;;;;;;;;;18.00;13.00;;;;;21.26;43.76;101271.45;112183;1247;20817;-32
2023/12/08 10:11:45;;;;;;;;;16.50;15.00;;;;;21.26;44.02;101273.63;112076;1251;20186;-32
2023/12/08 10:14:13;;;;;;;;;14.67;13.00;;;;;21.26;43.69;101270.14;112135;1255;20235;-33
2023/12/08 10:16:40;;;;;;;;;14.33;13.67;;;;;21.25;43.76;101274.77;112076;1263;19291;-32
2023/12/08 10:19:09;;;;;;;;;11.00;10.00;;;;;21.26;43.72;101276.13;112201;1247;20017;-32
2023/12/08 10:21:36;;;;;;;;;12.00;9.00;;;;;21.24;43.69;101277.32;112011;1247;20078;-32
2023/12/08 10:24:04;;;;;;;;;14.00;13.00;;;;;21.25;43.58;101277.76;112175;1257;19696;-32
2023/12/08 10:26:31;;;;;;;;;14.00;13.00;;;;;21.25;43.69;101275.04;111996;1263;18560;-32
2023/12/08 10:28:59;;;;;;;;;16.00;14.00;;;;;21.25;43.82;101274.33;112140;1248;20633;-32
2023/12/08 10:31:26;;;;;;;;;17.00;13.50;;;;;21.25;43.74;101274.07;112007;1263;19327;-32
2023/12/08 10:33:54;;;;;;;;;13.00;11.00;;;;;21.24;43.58;101271.55;112163;1247;21525;-31
2023/12/08 10:36:21;;;;;;;;;16.00;13.50;;;;;21.24;43.54;101267.89;112006;1263;20040;-32
2023/12/08 10:38:49;;;;;;;;;16.00;14.00;;;;;21.25;43.62;101265.61;112177;1263;20903;-32
2023/12/08 10:41:17;;;;;;;;;16.00;13.50;;;;;21.25;43.68;101262.94;112004;1248;20362;-32
2023/12/08 10:43:44;;;;;;;;;11.00;10.00;;;;;21.25;43.39;101261.25;112129;1263;18634;-32
2023/12/08 10:46:12;;;;;;;;;13.00;11.00;;;;;21.24;43.40;101254.11;111941;1263;20677;-32
2023/12/08 10:48:39;;;;;;;;;15.33;14.33;;;;;21.27;43.42;101253.98;112151;1248;20009;-32
2023/12/08 10:51:06;;;;;;;;;16.00;11.00;;;;;21.26;43.38;101258.10;112007;1248;20358;-32
2023/12/08 10:53:34;;;;;;;;;13.50;13.00;;;;;21.24;43.36;101261.89;112162;1263;20625;-32
2023/12/08 10:56:01;;;;;;;;;14.00;11.00;;;;;21.23;43.36;101259.66;111987;1248;21198;-32
2023/12/08 10:58:29;;;;;;;;;13.00;12.00;;;;;21.24;43.14;101258.36;112208;1248;20105;-32
2023/12/08 11:00:56;;;;;;;;;14.00;11.00;;;;;21.24;43.22;101256.45;112030;1248;21086;-32
2023/12/08 11:03:25;;;;;;;;;11.00;10.00;;;;;21.24;43.26;101251.66;112121;1248;20123;-32
2023/12/08 11:05:52;;;;;;;;;14.50;14.00;;;;;21.23;43.29;101251.97;111989;1247;18678;-32
2023/12/08 11:08:19;;;;;;;;;11.00;10.00;;;;;21.23;43.20;101247.61;112136;1248;20779;-32